createdAt,value
2019-01-03T00:01:12.841Z,88.10
2019-01-03T00:04:04.415Z,89.50
2019-01-03T00:06:55.754Z,89.70
2019-01-03T00:09:39.979Z,90.00
2019-01-03T00:12:23.897Z,89.60
2019-01-03T00:15:01.735Z,89.80
2019-01-03T00:17:53.105Z,90.20
2019-01-03T00:20:33.991Z,90.40
2019-01-03T00:23:15.470Z,90.50
2019-01-03T00:25:53.621Z,90.10
2019-01-03T00:28:37.383Z,89.10
2019-01-03T00:31:12.639Z,90.50
2019-01-03T00:33:53.928Z,90.10
2019-01-03T00:36:32.028Z,89.50
2019-01-03T00:39:11.219Z,88.50
2019-01-03T00:41:55.434Z,86.90
2019-01-03T00:44:39.483Z,86.70
2019-01-03T00:47:30.905Z,86.60
2019-01-03T00:50:19.747Z,84.90
2019-01-03T00:53:10.053Z,84.10
2019-01-03T00:56:01.815Z,85.40
2019-01-03T00:58:39.906Z,84.70
2019-01-03T01:01:31.407Z,83.80
2019-01-03T01:04:06.703Z,90.50
2019-01-03T01:06:53.829Z,94.60
2019-01-03T01:09:32.081Z,96.00
2019-01-03T01:12:24.007Z,96.20
2019-01-03T01:15:11.441Z,96.10
2019-01-03T01:17:52.715Z,96.50
2019-01-03T01:20:34.347Z,96.70
2019-01-03T01:23:26.134Z,97.30
2019-01-03T01:26:17.576Z,97.30
2019-01-03T01:29:08.996Z,97.80
2019-01-03T01:31:44.213Z,98.00
2019-01-03T01:34:22.001Z,98.30
2019-01-03T01:36:57.243Z,97.80
2019-01-03T01:39:32.549Z,97.00
2019-01-03T01:42:24.149Z,97.00
2019-01-03T01:45:14.475Z,96.90
2019-01-03T01:47:58.429Z,97.60
2019-01-03T01:50:51.883Z,98.60
2019-01-03T01:53:32.708Z,98.20
2019-01-03T01:56:24.255Z,97.80
2019-01-03T01:59:02.595Z,97.30
2019-01-03T02:01:40.460Z,96.60
2019-01-03T02:04:18.305Z,96.00
2019-01-03T02:10:27.815Z,93.70
2019-01-03T02:13:21.230Z,93.50
2019-01-03T02:16:02.272Z,94.00
2019-01-03T02:18:53.899Z,93.80
2019-01-03T02:21:31.867Z,93.50
2019-01-03T02:24:12.730Z,93.50
2019-01-03T02:27:03.061Z,93.70
2019-01-03T02:29:54.451Z,93.90
2019-01-03T02:32:29.779Z,94.00
2019-01-03T02:35:23.381Z,94.20
2019-01-03T02:38:15.185Z,93.90
2019-01-03T02:41:06.462Z,93.70
2019-01-03T02:43:57.842Z,93.10
2019-01-03T02:46:35.945Z,92.70
2019-01-03T02:49:11.229Z,93.00
2019-01-03T02:51:49.200Z,95.10
2019-01-03T02:54:24.473Z,96.40
2019-01-03T02:57:02.411Z,96.30
2019-01-03T02:59:53.735Z,95.20
2019-01-03T03:02:34.895Z,94.40
2019-01-03T03:05:13.080Z,93.20
2019-01-03T03:07:53.999Z,91.70
2019-01-03T03:10:31.856Z,91.20
2019-01-03T03:13:07.068Z,90.80
2019-01-03T03:15:45.196Z,90.50
2019-01-03T03:18:23.005Z,90.50
2019-01-03T03:21:07.008Z,90.20
2019-01-03T03:23:42.231Z,90.10
2019-01-03T03:26:23.618Z,90.20
2019-01-03T03:29:04.518Z,91.00
2019-01-03T03:31:39.778Z,91.20
2019-01-03T03:34:23.932Z,91.10
2019-01-03T03:37:15.959Z,91.00
2019-01-03T03:39:57.311Z,91.10
2019-01-03T03:42:35.413Z,90.80
2019-01-03T03:45:10.792Z,91.80
2019-01-03T03:48:02.655Z,92.70
2019-01-03T03:50:40.761Z,92.90
2019-01-03T03:53:24.921Z,92.90
2019-01-03T03:56:09.397Z,92.80
2019-01-03T04:02:03.124Z,93.70
2019-01-03T04:04:53.661Z,95.70
2019-01-03T04:07:29.037Z,97.10
2019-01-03T04:10:04.275Z,97.50
2019-01-03T04:12:58.024Z,98.20
2019-01-03T04:15:33.295Z,96.90
2019-01-03T04:18:08.509Z,96.00
2019-01-03T04:20:49.691Z,95.40
2019-01-03T04:23:24.937Z,95.60
2019-01-03T04:26:00.238Z,94.70
2019-01-03T04:28:47.354Z,94.50
2019-01-03T04:31:22.725Z,94.10
2019-01-03T04:34:07.094Z,95.40
2019-01-03T04:36:50.977Z,96.30
2019-01-03T04:39:26.211Z,96.40
2019-01-03T04:42:17.529Z,96.30
2019-01-03T04:44:52.768Z,95.30
2019-01-03T04:47:30.929Z,94.20
2019-01-03T04:50:07.003Z,93.60
2019-01-03T04:52:51.043Z,92.90
2019-01-03T04:55:42.647Z,92.20
2019-01-03T04:58:23.867Z,93.00
2019-01-03T05:01:19.311Z,94.20
2019-01-03T05:04:03.741Z,95.30
2019-01-03T05:06:38.962Z,96.30
2019-01-03T05:09:14.295Z,96.50
2019-01-03T05:11:49.548Z,96.50
2019-01-03T05:14:41.054Z,95.90
2019-01-03T05:17:16.301Z,95.10
2019-01-03T05:19:51.642Z,94.60
2019-01-03T05:22:42.122Z,93.80
2019-01-03T05:25:23.623Z,93.00
2019-01-03T05:28:04.534Z,92.00
2019-01-03T05:30:45.358Z,92.80
2019-01-03T05:33:20.583Z,95.70
2019-01-03T05:35:58.407Z,96.80
2019-01-03T05:38:51.903Z,95.90
2019-01-03T05:41:27.157Z,95.70
2019-01-03T05:44:02.456Z,94.70
2019-01-03T05:46:54.083Z,94.40
2019-01-03T05:49:35.449Z,93.20
2019-01-03T05:52:16.544Z,92.70
2019-01-03T05:55:00.569Z,92.00
2019-01-03T05:57:45.056Z,91.50
2019-01-03T06:00:20.358Z,91.40
2019-01-03T06:02:55.631Z,93.40
2019-01-03T06:05:39.782Z,95.00
2019-01-03T06:08:21.038Z,95.70
2019-01-03T06:10:56.280Z,94.40
2019-01-03T06:13:46.952Z,94.10
2019-01-03T06:16:33.936Z,93.80
2019-01-03T06:19:18.149Z,93.30
2019-01-03T06:21:53.380Z,92.20
2019-01-03T06:24:43.558Z,91.70
2019-01-03T06:27:18.932Z,91.60
2019-01-03T06:30:10.424Z,92.00
2019-01-03T06:33:02.122Z,93.00
2019-01-03T06:35:40.170Z,94.50
2019-01-03T06:38:31.572Z,95.90
2019-01-03T06:41:12.486Z,96.90
2019-01-03T06:43:53.246Z,97.60
2019-01-03T06:46:37.366Z,97.80
2019-01-03T06:49:15.459Z,97.20
2019-01-03T06:52:06.932Z,96.60
2019-01-03T06:54:44.766Z,97.00
2019-01-03T06:57:20.032Z,97.00
2019-01-03T07:00:07.024Z,97.10
2019-01-03T07:02:42.303Z,96.90
2019-01-03T07:05:34.102Z,96.30
2019-01-03T07:08:09.753Z,95.90
2019-01-03T07:10:51.126Z,95.40
2019-01-03T07:13:42.703Z,95.30
2019-01-03T07:16:17.926Z,94.80
2019-01-03T07:18:59.138Z,94.40
2019-01-03T07:21:37.195Z,94.00
2019-01-03T07:24:18.372Z,93.50
2019-01-03T07:27:06.978Z,93.40
2019-01-03T07:29:58.657Z,93.10
2019-01-03T07:32:36.546Z,92.20
2019-01-03T07:35:27.346Z,91.80
2019-01-03T07:38:08.284Z,91.20
2019-01-03T07:40:55.652Z,90.20
2019-01-03T07:43:36.808Z,90.60
2019-01-03T07:46:15.346Z,90.20
2019-01-03T07:48:50.664Z,90.50
2019-01-03T07:51:37.988Z,90.70
2019-01-03T07:54:29.480Z,90.50
2019-01-03T07:57:19.590Z,87.90
2019-01-03T08:00:11.231Z,86.00
2019-01-03T08:03:02.928Z,82.00
2019-01-03T08:05:40.817Z,78.10
2019-01-03T08:08:32.039Z,72.60
2019-01-03T08:11:23.714Z,71.60
2019-01-03T08:14:04.683Z,72.40
2019-01-03T08:16:56.372Z,80.10
2019-01-03T08:19:31.780Z,81.50
2019-01-03T08:22:13.085Z,65.20
2019-01-03T08:24:53.780Z,63.30
2019-01-03T08:27:41.207Z,60.20
2019-01-03T08:30:16.590Z,59.30
2019-01-03T08:32:54.392Z,59.70
2019-01-03T08:35:35.598Z,58.60
2019-01-03T08:38:28.768Z,58.60
2019-01-03T08:41:15.848Z,57.20
2019-01-03T08:43:56.636Z,56.90
2019-01-03T08:46:44.073Z,56.90
2019-01-03T08:49:19.436Z,56.80
2019-01-03T08:52:00.237Z,56.50
2019-01-03T08:54:51.640Z,60.10
2019-01-03T08:57:38.768Z,65.50
2019-01-03T09:00:32.093Z,62.40
2019-01-03T09:03:23.693Z,62.10
2019-01-03T09:06:14.923Z,62.40
2019-01-03T09:08:50.179Z,63.40
2019-01-03T09:11:40.327Z,74.40
2019-01-03T09:14:15.574Z,74.00
2019-01-03T09:16:50.806Z,71.10
2019-01-03T09:19:44.223Z,70.70
2019-01-03T09:22:22.102Z,69.90
2019-01-03T09:24:57.423Z,69.20
2019-01-03T09:27:49.250Z,69.00
2019-01-03T09:30:42.792Z,68.60
2019-01-03T09:33:18.009Z,68.40
2019-01-03T09:35:53.356Z,67.20
2019-01-03T09:38:40.285Z,68.50
2019-01-03T09:41:18.008Z,69.60
2019-01-03T09:43:53.223Z,70.60
2019-01-03T09:46:26.864Z,71.70
2019-01-03T09:49:00.446Z,71.20
2019-01-03T09:51:34.080Z,72.20
2019-01-03T09:54:08.050Z,71.50
2019-01-03T09:56:42.386Z,72.40
2019-01-03T09:59:15.968Z,73.20
2019-01-03T10:01:49.600Z,72.80
2019-01-03T10:04:23.176Z,72.40
2019-01-03T10:06:56.877Z,72.30
2019-01-03T10:09:30.467Z,72.70
2019-01-03T10:12:04.248Z,71.40
2019-01-03T10:14:37.823Z,72.10
2019-01-03T10:17:11.449Z,70.80
2019-01-03T10:19:45.191Z,68.80
2019-01-03T10:22:18.811Z,67.60
2019-01-03T10:24:53.077Z,66.80
2019-01-03T10:27:26.708Z,64.60
2019-01-03T10:30:00.375Z,67.80
2019-01-03T10:32:34.101Z,72.70
2019-01-03T10:35:07.667Z,76.80
2019-01-03T10:37:41.314Z,78.80
2019-01-03T10:40:14.921Z,79.40
2019-01-03T10:42:48.545Z,78.10
2019-01-03T10:45:22.119Z,77.80
2019-01-03T10:47:55.803Z,76.50
2019-01-03T10:50:29.395Z,75.30
2019-01-03T10:53:03.049Z,75.40
2019-01-03T10:55:36.627Z,74.30
2019-01-03T10:58:10.304Z,77.40
2019-01-03T11:00:43.885Z,80.60
2019-01-03T11:03:17.487Z,83.20
2019-01-03T11:05:51.123Z,79.80
2019-01-03T11:08:24.715Z,79.60
2019-01-03T11:11:02.131Z,75.90
2019-01-03T11:13:33.730Z,74.90
2019-01-03T11:16:07.681Z,73.00
2019-01-03T11:18:41.276Z,69.30
2019-01-03T11:21:14.863Z,69.70
2019-01-03T11:23:48.485Z,70.20
2019-01-03T11:26:22.073Z,71.30
2019-01-03T11:28:56.950Z,71.70
2019-01-03T11:31:30.529Z,70.80
2019-01-03T11:34:04.153Z,70.90
2019-01-03T11:36:37.732Z,71.80
2019-01-03T11:39:12.971Z,70.80
2019-01-03T11:41:46.547Z,67.60
2019-01-03T11:44:21.645Z,66.20
2019-01-03T11:46:55.231Z,64.50
2019-01-03T11:49:28.884Z,64.60
2019-01-03T11:52:02.534Z,64.10
2019-01-03T11:54:36.163Z,66.40
2019-01-03T11:57:09.744Z,66.90
2019-01-03T11:59:43.411Z,66.90
2019-01-03T12:02:16.995Z,67.20
2019-01-03T12:04:50.625Z,67.00
2019-01-03T12:07:24.197Z,67.70
2019-01-03T12:09:57.825Z,68.60
2019-01-03T12:12:31.485Z,68.60
2019-01-03T12:15:07.673Z,65.90
2019-01-03T12:17:41.335Z,66.40
2019-01-03T12:20:15.019Z,65.30
2019-01-03T12:22:48.608Z,65.60
2019-01-03T12:25:22.394Z,64.80
2019-01-03T12:27:55.981Z,64.70
2019-01-03T12:30:29.670Z,65.50
2019-01-03T12:33:03.240Z,66.40
2019-01-03T12:35:36.875Z,67.00
2019-01-03T12:38:10.462Z,68.10
2019-01-03T12:40:44.177Z,67.40
2019-01-03T12:43:17.735Z,64.30
2019-01-03T12:45:51.426Z,63.60
2019-01-03T12:48:25.007Z,65.10
2019-01-03T12:50:58.627Z,65.00
2019-01-03T12:53:32.265Z,64.80
2019-01-03T12:56:05.857Z,64.40
2019-01-03T12:58:39.431Z,63.70
2019-01-03T13:01:13.262Z,64.00
2019-01-03T13:03:46.819Z,66.50
2019-01-03T13:06:21.174Z,70.70
2019-01-03T13:08:54.899Z,74.50
2019-01-03T13:11:28.524Z,82.70
2019-01-03T13:14:02.437Z,83.40
2019-01-03T13:16:36.077Z,82.20
2019-01-03T13:19:09.651Z,82.40
2019-01-03T13:21:43.505Z,80.60
2019-01-03T13:24:17.099Z,80.30
2019-01-03T13:26:50.743Z,76.50
2019-01-03T13:29:24.315Z,75.00
2019-01-03T13:31:58.010Z,76.80
2019-01-03T13:34:31.605Z,75.10
2019-01-03T13:37:05.305Z,72.30
2019-01-03T13:39:39.060Z,72.40
2019-01-03T13:42:12.719Z,71.00
2019-01-03T13:44:46.307Z,71.40
2019-01-03T13:47:20.012Z,71.00
2019-01-03T13:49:53.591Z,72.30
2019-01-03T13:52:27.291Z,71.30
2019-01-03T13:55:00.881Z,70.30
2019-01-03T13:57:34.719Z,69.00
2019-01-03T14:00:09.850Z,70.00
2019-01-03T14:02:43.489Z,69.10
2019-01-03T14:05:17.077Z,69.10
2019-01-03T14:07:50.864Z,68.70
2019-01-03T14:10:24.450Z,69.10
2019-01-03T14:12:58.519Z,70.20
2019-01-03T14:15:32.179Z,70.10
2019-01-03T14:18:05.879Z,70.70
2019-01-03T14:20:39.469Z,71.20
2019-01-03T14:23:13.091Z,71.40
2019-01-03T14:25:46.681Z,72.70
2019-01-03T14:28:20.375Z,74.30
2019-01-03T14:30:53.965Z,74.20
2019-01-03T14:33:27.701Z,73.10
2019-01-03T14:36:01.315Z,72.60
2019-01-03T14:38:34.959Z,71.40
2019-01-03T14:41:08.550Z,71.50
2019-01-03T14:43:42.587Z,70.60
2019-01-03T14:46:16.380Z,71.80
2019-01-03T14:48:50.003Z,70.60
2019-01-03T14:51:23.712Z,69.30
2019-01-03T14:53:57.317Z,71.20
2019-01-03T14:56:31.017Z,72.80
2019-01-03T14:59:04.671Z,73.70
2019-01-03T15:01:38.377Z,72.00
2019-01-03T15:04:11.958Z,72.50
2019-01-03T15:06:45.569Z,73.50
2019-01-03T15:09:19.151Z,74.00
2019-01-03T15:11:52.780Z,73.20
2019-01-03T15:14:26.365Z,72.90
2019-01-03T15:17:00.002Z,73.70
2019-01-03T15:19:34.256Z,73.90
2019-01-03T15:22:07.858Z,73.60
2019-01-03T15:24:41.488Z,73.80
2019-01-03T15:27:15.168Z,74.80
2019-01-03T15:29:48.786Z,74.90
2019-01-03T15:32:22.831Z,73.10
2019-01-03T15:34:56.454Z,73.20
2019-01-03T15:37:30.147Z,73.40
2019-01-03T15:40:04.864Z,73.30
2019-01-03T15:42:38.561Z,74.00
2019-01-03T15:45:12.241Z,73.40
2019-01-03T15:47:45.924Z,72.00
2019-01-03T15:50:19.663Z,71.40
2019-01-03T15:52:53.328Z,70.60
2019-01-03T15:55:26.975Z,69.70
2019-01-03T15:58:00.559Z,68.70
2019-01-03T16:00:34.898Z,67.90
2019-01-03T16:03:08.547Z,67.10
2019-01-03T16:05:42.156Z,65.50
2019-01-03T16:08:15.978Z,65.70
2019-01-03T16:10:49.569Z,66.60
2019-01-03T16:13:23.388Z,68.30
2019-01-03T16:15:57.310Z,70.30
2019-01-03T16:18:31.072Z,72.20
2019-01-03T16:21:04.836Z,74.20
2019-01-03T16:23:38.848Z,75.20
2019-01-03T16:26:12.506Z,76.30
2019-01-03T16:28:46.263Z,75.90
2019-01-03T16:31:19.888Z,75.00
2019-01-03T16:33:53.698Z,73.30
2019-01-03T16:36:27.280Z,73.30
2019-01-03T16:39:00.899Z,73.60
2019-01-03T16:41:34.489Z,72.90
2019-01-03T16:44:08.112Z,72.60
2019-01-03T16:46:41.688Z,72.60
2019-01-03T16:49:15.466Z,72.00
2019-01-03T16:51:49.040Z,72.70
2019-01-03T16:54:22.710Z,73.00
2019-01-03T16:56:56.342Z,72.50
2019-01-03T16:59:29.979Z,71.60
2019-01-03T17:02:03.532Z,72.00
2019-01-03T17:04:37.130Z,73.10
2019-01-03T17:07:10.857Z,73.40
2019-01-03T17:09:47.864Z,72.60
2019-01-03T17:12:21.543Z,72.90
2019-01-03T17:15:26.909Z,72.00
2019-01-03T17:21:56.188Z,72.40
2019-01-03T17:24:29.141Z,73.50
2019-01-03T17:27:02.862Z,73.60
2019-01-03T17:29:36.435Z,74.00
2019-01-03T17:32:12.272Z,74.80
2019-01-03T17:34:45.860Z,75.40
2019-01-03T17:37:19.472Z,80.30
2019-01-03T17:39:53.320Z,83.30
2019-01-03T17:42:27.045Z,82.80
2019-01-03T17:45:00.636Z,81.50
2019-01-03T17:47:34.358Z,81.10
2019-01-03T17:50:10.441Z,79.80
2019-01-03T17:52:44.082Z,80.40
2019-01-03T17:55:17.762Z,82.00
2019-01-03T17:57:51.368Z,81.90
2019-01-03T18:00:25.060Z,83.20
2019-01-03T18:02:58.661Z,84.00
2019-01-03T18:05:32.320Z,83.00
2019-01-03T18:08:05.977Z,82.60
2019-01-03T18:10:39.598Z,81.80
2019-01-03T18:13:13.254Z,79.10
2019-01-03T18:15:46.886Z,78.60
2019-01-03T18:18:20.549Z,78.60
2019-01-03T18:20:54.263Z,78.20
2019-01-03T18:23:27.848Z,73.80
2019-01-03T18:26:01.460Z,72.00
2019-01-03T18:28:35.196Z,70.80
2019-01-03T18:31:08.893Z,70.00
2019-01-03T18:33:42.629Z,71.30
2019-01-03T18:36:16.256Z,73.40
2019-01-03T18:38:49.843Z,73.30
2019-01-03T18:41:23.536Z,73.60
2019-01-03T18:43:57.130Z,76.80
2019-01-03T18:46:30.761Z,77.30
2019-01-03T18:52:50.699Z,79.20
2019-01-03T18:55:24.286Z,76.80
2019-01-03T18:57:57.990Z,76.70
2019-01-03T19:00:31.584Z,74.50
2019-01-03T19:03:05.657Z,73.70
2019-01-03T19:09:25.436Z,68.60
2019-01-03T19:11:59.006Z,67.70
2019-01-03T19:14:32.647Z,67.10
2019-01-03T19:17:06.233Z,67.60
2019-01-03T19:19:39.861Z,68.20
2019-01-03T19:22:13.619Z,68.20
2019-01-03T19:24:47.404Z,66.40
2019-01-03T19:27:21.287Z,66.60
2019-01-03T19:29:54.911Z,66.90
2019-01-03T19:32:28.618Z,66.20
2019-01-03T19:35:02.388Z,66.70
2019-01-03T19:37:35.963Z,67.60
2019-01-03T19:40:12.298Z,67.80
2019-01-03T19:42:46.132Z,66.90
2019-01-03T19:45:19.818Z,66.40
2019-01-03T19:47:53.607Z,66.80
2019-01-03T19:50:27.219Z,67.80
2019-01-03T19:53:00.880Z,68.20
2019-01-03T19:55:34.492Z,67.70
2019-01-03T19:58:08.183Z,66.40
2019-01-03T20:00:41.958Z,67.00
2019-01-03T20:03:15.551Z,67.50
2019-01-03T20:05:49.152Z,67.20
2019-01-03T20:08:22.820Z,67.30
2019-01-03T20:10:56.423Z,66.10
2019-01-03T20:13:30.052Z,66.30
2019-01-03T20:16:03.732Z,66.70
2019-01-03T20:18:37.437Z,66.20
2019-01-03T20:21:11.081Z,66.60
2019-01-03T20:23:44.855Z,66.10
2019-01-03T20:26:18.487Z,67.50
2019-01-03T20:28:52.092Z,69.20
2019-01-03T20:31:25.670Z,69.80
2019-01-03T20:33:59.377Z,70.80
2019-01-03T20:36:33.108Z,68.40
2019-01-03T20:39:06.960Z,68.20
2019-01-03T20:41:40.497Z,68.10
2019-01-03T20:44:14.207Z,67.90
2019-01-03T20:46:47.870Z,68.70
2019-01-03T20:49:21.563Z,68.20
2019-01-03T20:51:55.292Z,69.00
2019-01-03T20:54:28.948Z,68.10
2019-01-03T20:57:03.175Z,66.00
2019-01-03T20:59:36.796Z,64.50
2019-01-03T21:02:10.449Z,64.40
2019-01-03T21:04:44.089Z,64.30
2019-01-03T21:07:17.670Z,64.60
2019-01-03T21:09:51.355Z,65.40
2019-01-03T21:12:25.025Z,65.00
2019-01-03T21:14:58.703Z,65.20
2019-01-03T21:17:32.320Z,64.60
2019-01-03T21:23:43.436Z,65.70
2019-01-03T21:26:18.638Z,66.00
2019-01-03T21:28:52.407Z,66.50
2019-01-03T21:31:26.049Z,66.40
2019-01-03T21:33:59.701Z,66.50
2019-01-03T21:40:19.924Z,66.90
2019-01-03T21:42:53.498Z,67.70
2019-01-03T21:45:27.180Z,68.00
2019-01-03T21:48:00.777Z,67.70
2019-01-03T21:50:34.483Z,67.70
2019-01-03T21:53:08.159Z,69.10
2019-01-03T21:55:41.791Z,68.50
2019-01-03T21:58:15.379Z,69.40
2019-01-03T22:00:49.022Z,69.80
2019-01-03T22:03:22.594Z,70.30
2019-01-03T22:05:56.653Z,71.70
2019-01-03T22:08:30.209Z,72.10
2019-01-03T22:11:04.035Z,72.20
2019-01-03T22:13:37.631Z,74.20
2019-01-03T22:16:11.254Z,74.10
2019-01-03T22:18:44.842Z,73.90
2019-01-03T22:21:18.462Z,73.60
2019-01-03T22:23:52.066Z,73.00
2019-01-03T22:26:25.684Z,74.00
2019-01-03T22:29:00.147Z,74.50
2019-01-03T22:31:33.799Z,73.70
2019-01-03T22:34:07.406Z,74.10
2019-01-03T22:36:41.035Z,74.70
2019-01-03T22:39:14.628Z,73.20
2019-01-03T22:41:48.249Z,74.70
2019-01-03T22:44:21.855Z,73.90
2019-01-03T22:46:55.557Z,73.90
2019-01-03T22:49:29.154Z,74.20
2019-01-03T22:52:02.784Z,75.00
2019-01-03T22:54:36.359Z,76.30
2019-01-03T22:57:09.985Z,77.60
2019-01-03T22:59:43.590Z,79.00
2019-01-03T23:02:17.355Z,78.80
2019-01-03T23:04:51.019Z,78.50
2019-01-03T23:07:24.651Z,79.00
2019-01-03T23:09:58.236Z,79.80
2019-01-03T23:12:31.875Z,79.30
2019-01-03T23:15:06.035Z,78.20
2019-01-03T23:17:39.713Z,78.20
2019-01-03T23:20:13.388Z,78.00
2019-01-03T23:22:47.018Z,78.30
2019-01-03T23:25:20.683Z,78.40
2019-01-03T23:27:54.387Z,77.60
2019-01-03T23:30:28.037Z,76.70
2019-01-03T23:33:01.669Z,76.30
2019-01-03T23:35:35.260Z,76.40
2019-01-03T23:38:08.901Z,74.80
2019-01-03T23:40:42.494Z,74.60
2019-01-03T23:43:16.215Z,73.50
2019-01-03T23:45:49.861Z,74.40
2019-01-03T23:48:23.611Z,73.90
2019-01-03T23:50:57.696Z,73.70
2019-01-03T23:53:31.765Z,73.30
2019-01-03T23:56:05.861Z,73.10
2019-01-03T23:58:39.645Z,72.10
